sensor_id;sensor_type;location;lat;lon;timestamp;P1;durP1;ratioP1;P2;durP2;ratioP2
1721;SDS011;858;53.190;8.596;2022-11-23T00:01:19;7.60;;;6.63;;
1721;SDS011;858;53.190;8.596;2022-11-23T00:03:46;10.17;;;5.60;;
1721;SDS011;858;53.190;8.596;2022-11-23T00:06:13;11.07;;;6.57;;
1721;SDS011;858;53.190;8.596;2022-11-23T00:08:40;7.87;;;5.90;;
1721;SDS011;858;53.190;8.596;2022-11-23T00:11:08;7.67;;;5.80;;
1721;SDS011;858;53.190;8.596;2022-11-23T00:13:35;7.60;;;5.60;;
1721;SDS011;858;53.190;8.596;2022-11-23T00:16:03;9.33;;;6.10;;
1721;SDS011;858;53.190;8.596;2022-11-23T00:18:33;8.37;;;5.53;;
1721;SDS011;858;53.190;8.596;2022-11-23T00:21:04;8.53;;;5.37;;
1721;SDS011;858;53.190;8.596;2022-11-23T00:23:30;9.20;;;6.00;;
1721;SDS011;858;53.190;8.596;2022-11-23T00:25:57;7.77;;;5.57;;
1721;SDS011;858;53.190;8.596;2022-11-23T00:28:23;7.27;;;6.20;;
1721;SDS011;858;53.190;8.596;2022-11-23T00:30:50;9.93;;;5.60;;
1721;SDS011;858;53.190;8.596;2022-11-23T00:33:16;10.70;;;5.50;;
1721;SDS011;858;53.190;8.596;2022-11-23T00:35:44;7.40;;;5.87;;
1721;SDS011;858;53.190;8.596;2022-11-23T00:38:10;10.13;;;6.10;;
1721;SDS011;858;53.190;8.596;2022-11-23T00:40:37;12.07;;;6.13;;
1721;SDS011;858;53.190;8.596;2022-11-23T00:43:04;8.03;;;5.50;;
1721;SDS011;858;53.190;8.596;2022-11-23T00:45:30;10.13;;;5.63;;
1721;SDS011;858;53.190;8.596;2022-11-23T00:47:57;9.27;;;6.30;;
1721;SDS011;858;53.190;8.596;2022-11-23T00:50:23;12.97;;;5.63;;
1721;SDS011;858;53.190;8.596;2022-11-23T00:52:52;10.43;;;6.37;;
1721;SDS011;858;53.190;8.596;2022-11-23T00:55:18;11.33;;;6.23;;
1721;SDS011;858;53.190;8.596;2022-11-23T00:57:45;12.60;;;5.93;;
1721;SDS011;858;53.190;8.596;2022-11-23T01:00:11;11.77;;;6.50;;
1721;SDS011;858;53.190;8.596;2022-11-23T01:02:38;8.70;;;6.67;;
1721;SDS011;858;53.190;8.596;2022-11-23T01:05:04;8.17;;;6.17;;
1721;SDS011;858;53.190;8.596;2022-11-23T01:07:31;15.90;;;7.30;;
1721;SDS011;858;53.190;8.596;2022-11-23T01:09:59;11.83;;;6.67;;
1721;SDS011;858;53.190;8.596;2022-11-23T01:12:27;11.80;;;6.23;;
1721;SDS011;858;53.190;8.596;2022-11-23T01:14:53;8.73;;;5.40;;
1721;SDS011;858;53.190;8.596;2022-11-23T01:17:20;9.93;;;5.63;;
1721;SDS011;858;53.190;8.596;2022-11-23T01:19:46;13.10;;;6.40;;
1721;SDS011;858;53.190;8.596;2022-11-23T01:22:13;8.40;;;5.40;;
1721;SDS011;858;53.190;8.596;2022-11-23T01:24:39;8.50;;;5.57;;
1721;SDS011;858;53.190;8.596;2022-11-23T01:27:07;9.40;;;6.43;;
1721;SDS011;858;53.190;8.596;2022-11-23T01:29:34;10.50;;;6.33;;
1721;SDS011;858;53.190;8.596;2022-11-23T01:32:00;11.67;;;8.03;;
1721;SDS011;858;53.190;8.596;2022-11-23T01:34:27;13.50;;;6.53;;
1721;SDS011;858;53.190;8.596;2022-11-23T01:36:53;8.97;;;6.00;;
1721;SDS011;858;53.190;8.596;2022-11-23T01:39:20;7.30;;;6.20;;
1721;SDS011;858;53.190;8.596;2022-11-23T01:41:46;18.30;;;6.50;;
1721;SDS011;858;53.190;8.596;2022-11-23T01:44:22;7.10;;;5.50;;
1721;SDS011;858;53.190;8.596;2022-11-23T01:46:52;6.50;;;5.20;;
1721;SDS011;858;53.190;8.596;2022-11-23T01:49:19;8.13;;;5.97;;
1721;SDS011;858;53.190;8.596;2022-11-23T01:51:47;15.40;;;6.90;;
1721;SDS011;858;53.190;8.596;2022-11-23T01:54:15;7.63;;;5.20;;
1721;SDS011;858;53.190;8.596;2022-11-23T01:56:45;7.43;;;5.97;;
1721;SDS011;858;53.190;8.596;2022-11-23T01:59:13;9.33;;;5.07;;
1721;SDS011;858;53.190;8.596;2022-11-23T02:01:42;6.70;;;4.97;;
1721;SDS011;858;53.190;8.596;2022-11-23T02:04:09;9.23;;;5.40;;
1721;SDS011;858;53.190;8.596;2022-11-23T02:06:36;10.13;;;6.17;;
1721;SDS011;858;53.190;8.596;2022-11-23T02:09:04;13.60;;;5.97;;
1721;SDS011;858;53.190;8.596;2022-11-23T02:11:31;6.17;;;5.57;;
1721;SDS011;858;53.190;8.596;2022-11-23T02:13:58;14.37;;;5.40;;
1721;SDS011;858;53.190;8.596;2022-11-23T02:16:24;9.63;;;5.83;;
1721;SDS011;858;53.190;8.596;2022-11-23T02:18:52;8.57;;;4.53;;
1721;SDS011;858;53.190;8.596;2022-11-23T02:21:19;8.20;;;5.37;;
1721;SDS011;858;53.190;8.596;2022-11-23T02:23:47;9.23;;;5.30;;
1721;SDS011;858;53.190;8.596;2022-11-23T02:26:20;9.77;;;5.83;;
1721;SDS011;858;53.190;8.596;2022-11-23T02:28:48;9.43;;;6.20;;
1721;SDS011;858;53.190;8.596;2022-11-23T02:31:17;7.53;;;5.37;;
1721;SDS011;858;53.190;8.596;2022-11-23T02:33:43;6.90;;;4.27;;
1721;SDS011;858;53.190;8.596;2022-11-23T02:36:20;7.67;;;4.87;;
1721;SDS011;858;53.190;8.596;2022-11-23T02:38:50;9.97;;;5.27;;
1721;SDS011;858;53.190;8.596;2022-11-23T02:41:20;6.37;;;5.60;;
1721;SDS011;858;53.190;8.596;2022-11-23T02:43:46;10.93;;;5.40;;
1721;SDS011;858;53.190;8.596;2022-11-23T02:46:15;5.40;;;4.90;;
1721;SDS011;858;53.190;8.596;2022-11-23T02:48:43;6.37;;;4.30;;
1721;SDS011;858;53.190;8.596;2022-11-23T02:51:10;13.77;;;5.67;;
1721;SDS011;858;53.190;8.596;2022-11-23T02:53:36;8.70;;;5.07;;
1721;SDS011;858;53.190;8.596;2022-11-23T02:56:03;8.70;;;4.77;;
1721;SDS011;858;53.190;8.596;2022-11-23T02:58:31;8.67;;;5.47;;
1721;SDS011;858;53.190;8.596;2022-11-23T03:00:58;7.37;;;5.23;;
1721;SDS011;858;53.190;8.596;2022-11-23T03:03:26;9.23;;;5.00;;
1721;SDS011;858;53.190;8.596;2022-11-23T03:05:52;7.90;;;5.67;;
1721;SDS011;858;53.190;8.596;2022-11-23T03:08:18;7.80;;;5.10;;
1721;SDS011;858;53.190;8.596;2022-11-23T03:10:45;7.57;;;5.23;;
1721;SDS011;858;53.190;8.596;2022-11-23T03:13:12;5.67;;;5.17;;
1721;SDS011;858;53.190;8.596;2022-11-23T03:15:42;9.50;;;4.20;;
1721;SDS011;858;53.190;8.596;2022-11-23T03:18:09;13.20;;;5.33;;
1721;SDS011;858;53.190;8.596;2022-11-23T03:20:36;7.40;;;4.77;;
1721;SDS011;858;53.190;8.596;2022-11-23T03:23:02;7.57;;;4.40;;
1721;SDS011;858;53.190;8.596;2022-11-23T03:25:29;7.67;;;4.93;;
1721;SDS011;858;53.190;8.596;2022-11-23T03:27:56;7.23;;;4.77;;
1721;SDS011;858;53.190;8.596;2022-11-23T03:30:22;6.13;;;4.70;;
1721;SDS011;858;53.190;8.596;2022-11-23T03:32:50;6.97;;;5.37;;
1721;SDS011;858;53.190;8.596;2022-11-23T03:35:16;7.43;;;4.70;;
1721;SDS011;858;53.190;8.596;2022-11-23T03:37:43;11.77;;;5.00;;
1721;SDS011;858;53.190;8.596;2022-11-23T03:40:09;7.33;;;4.40;;
1721;SDS011;858;53.190;8.596;2022-11-23T03:42:38;6.00;;;4.87;;
1721;SDS011;858;53.190;8.596;2022-11-23T03:45:05;5.37;;;4.60;;
1721;SDS011;858;53.190;8.596;2022-11-23T03:47:31;10.30;;;5.23;;
1721;SDS011;858;53.190;8.596;2022-11-23T03:49:59;6.77;;;4.67;;
1721;SDS011;858;53.190;8.596;2022-11-23T03:52:25;7.93;;;5.17;;
1721;SDS011;858;53.190;8.596;2022-11-23T03:54:54;9.10;;;5.70;;
1721;SDS011;858;53.190;8.596;2022-11-23T03:57:20;8.67;;;5.23;;
1721;SDS011;858;53.190;8.596;2022-11-23T03:59:47;6.23;;;5.07;;
1721;SDS011;858;53.190;8.596;2022-11-23T04:02:13;6.70;;;5.77;;
1721;SDS011;858;53.190;8.596;2022-11-23T04:04:39;5.73;;;5.20;;
1721;SDS011;858;53.190;8.596;2022-11-23T04:07:07;5.87;;;4.53;;
1721;SDS011;858;53.190;8.596;2022-11-23T04:09:33;6.13;;;4.90;;
1721;SDS011;858;53.190;8.596;2022-11-23T04:12:00;7.10;;;4.67;;
1721;SDS011;858;53.190;8.596;2022-11-23T04:14:26;5.33;;;4.17;;
1721;SDS011;858;53.190;8.596;2022-11-23T04:16:53;7.03;;;5.37;;
1721;SDS011;858;53.190;8.596;2022-11-23T04:19:19;6.53;;;5.23;;
1721;SDS011;858;53.190;8.596;2022-11-23T04:21:47;6.17;;;5.30;;
1721;SDS011;858;53.190;8.596;2022-11-23T04:24:15;7.43;;;4.83;;
1721;SDS011;858;53.190;8.596;2022-11-23T04:26:41;6.87;;;4.70;;
1721;SDS011;858;53.190;8.596;2022-11-23T04:29:07;8.50;;;4.57;;
1721;SDS011;858;53.190;8.596;2022-11-23T04:31:34;6.67;;;5.03;;
1721;SDS011;858;53.190;8.596;2022-11-23T04:34:00;7.60;;;5.03;;
1721;SDS011;858;53.190;8.596;2022-11-23T04:36:27;6.83;;;4.83;;
1721;SDS011;858;53.190;8.596;2022-11-23T04:38:53;6.07;;;5.47;;
1721;SDS011;858;53.190;8.596;2022-11-23T04:41:21;10.27;;;4.83;;
1721;SDS011;858;53.190;8.596;2022-11-23T04:43:47;8.27;;;5.93;;
1721;SDS011;858;53.190;8.596;2022-11-23T04:46:16;6.77;;;4.60;;
1721;SDS011;858;53.190;8.596;2022-11-23T04:48:42;6.73;;;3.93;;
1721;SDS011;858;53.190;8.596;2022-11-23T04:51:09;4.87;;;3.90;;
1721;SDS011;858;53.190;8.596;2022-11-23T04:53:35;10.60;;;4.97;;
1721;SDS011;858;53.190;8.596;2022-11-23T04:56:02;10.00;;;4.53;;
1721;SDS011;858;53.190;8.596;2022-11-23T04:58:30;6.73;;;4.27;;
1721;SDS011;858;53.190;8.596;2022-11-23T05:00:57;6.90;;;4.60;;
1721;SDS011;858;53.190;8.596;2022-11-23T05:03:24;8.03;;;4.17;;
1721;SDS011;858;53.190;8.596;2022-11-23T05:05:51;7.83;;;3.93;;
1721;SDS011;858;53.190;8.596;2022-11-23T05:08:19;6.63;;;4.23;;
1721;SDS011;858;53.190;8.596;2022-11-23T05:10:45;7.80;;;4.00;;
1721;SDS011;858;53.190;8.596;2022-11-23T05:13:11;7.43;;;4.33;;
1721;SDS011;858;53.190;8.596;2022-11-23T05:15:39;5.47;;;3.50;;
1721;SDS011;858;53.190;8.596;2022-11-23T05:18:06;9.73;;;4.03;;
1721;SDS011;858;53.190;8.596;2022-11-23T05:20:32;9.47;;;4.77;;
1721;SDS011;858;53.190;8.596;2022-11-23T05:22:59;5.73;;;3.67;;
1721;SDS011;858;53.190;8.596;2022-11-23T05:25:25;5.50;;;4.73;;
1721;SDS011;858;53.190;8.596;2022-11-23T05:27:52;7.03;;;4.40;;
1721;SDS011;858;53.190;8.596;2022-11-23T05:30:19;9.30;;;4.60;;
1721;SDS011;858;53.190;8.596;2022-11-23T05:32:47;7.23;;;4.43;;
1721;SDS011;858;53.190;8.596;2022-11-23T05:35:13;5.43;;;4.40;;
1721;SDS011;858;53.190;8.596;2022-11-23T05:37:40;4.67;;;3.50;;
1721;SDS011;858;53.190;8.596;2022-11-23T05:40:08;4.57;;;4.00;;
1721;SDS011;858;53.190;8.596;2022-11-23T05:42:36;8.13;;;4.60;;
1721;SDS011;858;53.190;8.596;2022-11-23T05:45:03;7.93;;;4.40;;
1721;SDS011;858;53.190;8.596;2022-11-23T05:47:29;11.07;;;4.10;;
1721;SDS011;858;53.190;8.596;2022-11-23T05:49:57;6.93;;;4.63;;
1721;SDS011;858;53.190;8.596;2022-11-23T05:52:24;5.57;;;3.80;;
1721;SDS011;858;53.190;8.596;2022-11-23T05:54:52;5.90;;;4.10;;
1721;SDS011;858;53.190;8.596;2022-11-23T05:57:18;8.63;;;4.60;;
1721;SDS011;858;53.190;8.596;2022-11-23T05:59:46;15.33;;;5.37;;
1721;SDS011;858;53.190;8.596;2022-11-23T06:02:13;8.23;;;4.60;;
1721;SDS011;858;53.190;8.596;2022-11-23T06:04:39;9.30;;;4.93;;
1721;SDS011;858;53.190;8.596;2022-11-23T06:07:08;9.97;;;6.17;;
1721;SDS011;858;53.190;8.596;2022-11-23T06:09:35;6.40;;;4.97;;
1721;SDS011;858;53.190;8.596;2022-11-23T06:12:03;10.47;;;5.17;;
1721;SDS011;858;53.190;8.596;2022-11-23T06:14:30;10.00;;;5.80;;
1721;SDS011;858;53.190;8.596;2022-11-23T06:16:56;10.07;;;5.70;;
1721;SDS011;858;53.190;8.596;2022-11-23T06:19:22;10.17;;;5.73;;
1721;SDS011;858;53.190;8.596;2022-11-23T06:21:49;11.40;;;5.43;;
1721;SDS011;858;53.190;8.596;2022-11-23T06:24:17;11.40;;;6.30;;
1721;SDS011;858;53.190;8.596;2022-11-23T06:26:43;10.67;;;6.40;;
1721;SDS011;858;53.190;8.596;2022-11-23T06:29:10;12.10;;;7.10;;
1721;SDS011;858;53.190;8.596;2022-11-23T06:31:36;11.83;;;7.03;;
1721;SDS011;858;53.190;8.596;2022-11-23T06:34:03;10.87;;;6.30;;
1721;SDS011;858;53.190;8.596;2022-11-23T06:36:29;11.87;;;5.60;;
1721;SDS011;858;53.190;8.596;2022-11-23T06:38:56;8.97;;;5.47;;
1721;SDS011;858;53.190;8.596;2022-11-23T06:41:24;8.17;;;6.80;;
1721;SDS011;858;53.190;8.596;2022-11-23T06:43:51;9.20;;;7.03;;
1721;SDS011;858;53.190;8.596;2022-11-23T06:46:17;7.10;;;6.03;;
1721;SDS011;858;53.190;8.596;2022-11-23T06:48:43;14.03;;;6.13;;
1721;SDS011;858;53.190;8.596;2022-11-23T06:51:10;10.20;;;5.80;;
1721;SDS011;858;53.190;8.596;2022-11-23T06:53:36;8.90;;;6.17;;
1721;SDS011;858;53.190;8.596;2022-11-23T06:56:03;13.00;;;5.83;;
1721;SDS011;858;53.190;8.596;2022-11-23T06:58:31;14.80;;;6.23;;
1721;SDS011;858;53.190;8.596;2022-11-23T07:00:58;19.50;;;6.93;;
1721;SDS011;858;53.190;8.596;2022-11-23T07:03:25;10.20;;;5.87;;
1721;SDS011;858;53.190;8.596;2022-11-23T07:05:53;13.20;;;6.50;;
1721;SDS011;858;53.190;8.596;2022-11-23T07:08:19;12.43;;;6.90;;
1721;SDS011;858;53.190;8.596;2022-11-23T07:10:46;10.10;;;6.23;;
1721;SDS011;858;53.190;8.596;2022-11-23T07:13:13;12.93;;;6.60;;
1721;SDS011;858;53.190;8.596;2022-11-23T07:15:41;10.13;;;7.13;;
1721;SDS011;858;53.190;8.596;2022-11-23T07:18:08;14.43;;;6.33;;
1721;SDS011;858;53.190;8.596;2022-11-23T07:20:35;14.10;;;5.77;;
1721;SDS011;858;53.190;8.596;2022-11-23T07:23:05;10.83;;;6.17;;
1721;SDS011;858;53.190;8.596;2022-11-23T07:25:33;6.30;;;5.40;;
1721;SDS011;858;53.190;8.596;2022-11-23T07:28:00;10.90;;;5.90;;
1721;SDS011;858;53.190;8.596;2022-11-23T07:30:27;15.00;;;6.97;;
1721;SDS011;858;53.190;8.596;2022-11-23T07:32:57;14.23;;;5.80;;
1721;SDS011;858;53.190;8.596;2022-11-23T07:35:24;7.80;;;5.47;;
1721;SDS011;858;53.190;8.596;2022-11-23T07:37:50;8.80;;;6.03;;
1721;SDS011;858;53.190;8.596;2022-11-23T07:40:18;12.07;;;5.47;;
1721;SDS011;858;53.190;8.596;2022-11-23T07:42:44;8.53;;;5.70;;
1721;SDS011;858;53.190;8.596;2022-11-23T07:45:11;11.30;;;7.30;;
1721;SDS011;858;53.190;8.596;2022-11-23T07:47:38;13.57;;;5.90;;
1721;SDS011;858;53.190;8.596;2022-11-23T07:50:07;7.17;;;4.80;;
1721;SDS011;858;53.190;8.596;2022-11-23T07:52:36;9.33;;;5.60;;
1721;SDS011;858;53.190;8.596;2022-11-23T07:55:03;9.70;;;5.10;;
1721;SDS011;858;53.190;8.596;2022-11-23T07:57:30;8.33;;;4.53;;
1721;SDS011;858;53.190;8.596;2022-11-23T07:59:57;11.70;;;5.70;;
1721;SDS011;858;53.190;8.596;2022-11-23T08:02:23;5.80;;;5.10;;
1721;SDS011;858;53.190;8.596;2022-11-23T08:04:49;9.03;;;5.03;;
1721;SDS011;858;53.190;8.596;2022-11-23T08:07:17;7.83;;;4.80;;
1721;SDS011;858;53.190;8.596;2022-11-23T08:09:44;13.70;;;4.40;;
1721;SDS011;858;53.190;8.596;2022-11-23T08:12:10;4.63;;;3.90;;
1721;SDS011;858;53.190;8.596;2022-11-23T08:14:37;8.50;;;4.83;;
1721;SDS011;858;53.190;8.596;2022-11-23T08:17:03;7.03;;;4.67;;
1721;SDS011;858;53.190;8.596;2022-11-23T08:19:30;9.30;;;4.80;;
1721;SDS011;858;53.190;8.596;2022-11-23T08:22:00;11.20;;;4.13;;
1721;SDS011;858;53.190;8.596;2022-11-23T08:24:28;6.43;;;4.13;;
1721;SDS011;858;53.190;8.596;2022-11-23T08:26:55;6.57;;;4.50;;
1721;SDS011;858;53.190;8.596;2022-11-23T08:29:21;8.17;;;4.73;;
1721;SDS011;858;53.190;8.596;2022-11-23T08:31:48;6.97;;;4.27;;
1721;SDS011;858;53.190;8.596;2022-11-23T08:34:14;11.90;;;4.53;;
1721;SDS011;858;53.190;8.596;2022-11-23T08:36:42;10.63;;;4.47;;
1721;SDS011;858;53.190;8.596;2022-11-23T08:39:09;8.70;;;5.30;;
1721;SDS011;858;53.190;8.596;2022-11-23T08:41:39;10.20;;;4.77;;
1721;SDS011;858;53.190;8.596;2022-11-23T08:44:05;5.80;;;3.83;;
1721;SDS011;858;53.190;8.596;2022-11-23T08:46:34;5.97;;;4.57;;
1721;SDS011;858;53.190;8.596;2022-11-23T08:49:01;9.37;;;4.73;;
1721;SDS011;858;53.190;8.596;2022-11-23T08:51:29;6.43;;;3.83;;
1721;SDS011;858;53.190;8.596;2022-11-23T08:53:55;7.50;;;4.33;;
1721;SDS011;858;53.190;8.596;2022-11-23T08:56:21;7.33;;;3.60;;
1721;SDS011;858;53.190;8.596;2022-11-23T08:58:49;8.50;;;4.10;;
1721;SDS011;858;53.190;8.596;2022-11-23T09:01:16;11.93;;;5.57;;
1721;SDS011;858;53.190;8.596;2022-11-23T09:03:43;6.33;;;3.50;;
1721;SDS011;858;53.190;8.596;2022-11-23T09:06:09;13.60;;;4.83;;
1721;SDS011;858;53.190;8.596;2022-11-23T09:08:36;7.40;;;4.83;;
1721;SDS011;858;53.190;8.596;2022-11-23T09:11:03;9.53;;;4.10;;
1721;SDS011;858;53.190;8.596;2022-11-23T09:13:30;7.13;;;4.13;;
1721;SDS011;858;53.190;8.596;2022-11-23T09:15:58;9.60;;;4.20;;
1721;SDS011;858;53.190;8.596;2022-11-23T09:18:24;12.23;;;4.43;;
1721;SDS011;858;53.190;8.596;2022-11-23T09:20:51;12.37;;;4.93;;
1721;SDS011;858;53.190;8.596;2022-11-23T09:23:17;9.07;;;4.70;;
1721;SDS011;858;53.190;8.596;2022-11-23T09:25:43;6.90;;;4.10;;
1721;SDS011;858;53.190;8.596;2022-11-23T09:28:12;8.73;;;5.00;;
1721;SDS011;858;53.190;8.596;2022-11-23T09:30:39;10.87;;;5.90;;
1721;SDS011;858;53.190;8.596;2022-11-23T09:33:07;9.13;;;5.03;;
1721;SDS011;858;53.190;8.596;2022-11-23T09:35:33;8.10;;;4.70;;
1721;SDS011;858;53.190;8.596;2022-11-23T09:38:00;5.20;;;4.50;;
1721;SDS011;858;53.190;8.596;2022-11-23T09:40:28;7.60;;;4.80;;
1721;SDS011;858;53.190;8.596;2022-11-23T09:42:58;9.10;;;5.80;;
1721;SDS011;858;53.190;8.596;2022-11-23T09:45:29;11.60;;;5.23;;
1721;SDS011;858;53.190;8.596;2022-11-23T09:50:46;10.00;;;4.47;;
1721;SDS011;858;53.190;8.596;2022-11-23T09:53:14;8.70;;;3.93;;
1721;SDS011;858;53.190;8.596;2022-11-23T09:55:42;5.43;;;3.70;;
1721;SDS011;858;53.190;8.596;2022-11-23T09:58:09;5.10;;;4.50;;
1721;SDS011;858;53.190;8.596;2022-11-23T10:00:40;7.03;;;4.77;;
1721;SDS011;858;53.190;8.596;2022-11-23T10:03:10;6.77;;;4.90;;
1721;SDS011;858;53.190;8.596;2022-11-23T10:05:39;5.53;;;4.93;;
1721;SDS011;858;53.190;8.596;2022-11-23T10:08:12;5.43;;;4.77;;
1721;SDS011;858;53.190;8.596;2022-11-23T10:10:43;7.00;;;4.23;;
1721;SDS011;858;53.190;8.596;2022-11-23T10:13:14;9.90;;;4.60;;
1721;SDS011;858;53.190;8.596;2022-11-23T10:15:50;11.13;;;4.30;;
1721;SDS011;858;53.190;8.596;2022-11-23T10:18:22;4.70;;;3.80;;
1721;SDS011;858;53.190;8.596;2022-11-23T10:20:54;9.23;;;5.20;;
1721;SDS011;858;53.190;8.596;2022-11-23T10:23:30;15.43;;;6.20;;
1721;SDS011;858;53.190;8.596;2022-11-23T10:25:58;10.53;;;5.30;;
1721;SDS011;858;53.190;8.596;2022-11-23T10:28:26;8.93;;;6.43;;
1721;SDS011;858;53.190;8.596;2022-11-23T10:30:54;9.10;;;4.80;;
1721;SDS011;858;53.190;8.596;2022-11-23T10:33:23;8.37;;;5.63;;
1721;SDS011;858;53.190;8.596;2022-11-23T10:35:51;7.23;;;5.10;;
1721;SDS011;858;53.190;8.596;2022-11-23T10:38:19;7.03;;;4.50;;
1721;SDS011;858;53.190;8.596;2022-11-23T10:40:49;14.33;;;5.30;;
1721;SDS011;858;53.190;8.596;2022-11-23T10:43:29;7.30;;;4.60;;
1721;SDS011;858;53.190;8.596;2022-11-23T10:48:39;8.30;;;4.17;;
1721;SDS011;858;53.190;8.596;2022-11-23T10:51:15;8.80;;;3.93;;
1721;SDS011;858;53.190;8.596;2022-11-23T10:53:43;11.40;;;4.27;;
1721;SDS011;858;53.190;8.596;2022-11-23T10:56:12;7.03;;;4.27;;
1721;SDS011;858;53.190;8.596;2022-11-23T10:58:40;6.77;;;6.10;;
1721;SDS011;858;53.190;8.596;2022-11-23T11:01:11;9.97;;;5.40;;
1721;SDS011;858;53.190;8.596;2022-11-23T11:03:39;9.57;;;4.20;;
1721;SDS011;858;53.190;8.596;2022-11-23T11:06:05;11.93;;;4.43;;
1721;SDS011;858;53.190;8.596;2022-11-23T11:08:32;8.80;;;3.70;;
1721;SDS011;858;53.190;8.596;2022-11-23T11:11:00;5.73;;;3.67;;
1721;SDS011;858;53.190;8.596;2022-11-23T11:13:30;6.87;;;5.10;;
1721;SDS011;858;53.190;8.596;2022-11-23T11:15:57;7.53;;;4.23;;
1721;SDS011;858;53.190;8.596;2022-11-23T11:18:25;4.13;;;3.53;;
1721;SDS011;858;53.190;8.596;2022-11-23T11:20:54;5.77;;;3.97;;
1721;SDS011;858;53.190;8.596;2022-11-23T11:23:21;5.00;;;4.07;;
1721;SDS011;858;53.190;8.596;2022-11-23T11:25:48;6.97;;;4.40;;
1721;SDS011;858;53.190;8.596;2022-11-23T11:28:21;9.13;;;4.77;;
1721;SDS011;858;53.190;8.596;2022-11-23T11:30:51;6.03;;;5.17;;
1721;SDS011;858;53.190;8.596;2022-11-23T11:33:20;12.47;;;5.27;;
1721;SDS011;858;53.190;8.596;2022-11-23T11:35:49;6.90;;;4.93;;
1721;SDS011;858;53.190;8.596;2022-11-23T11:38:17;9.60;;;4.47;;
1721;SDS011;858;53.190;8.596;2022-11-23T11:40:45;7.00;;;4.50;;
1721;SDS011;858;53.190;8.596;2022-11-23T11:43:13;7.60;;;4.50;;
1721;SDS011;858;53.190;8.596;2022-11-23T11:45:42;8.33;;;5.53;;
1721;SDS011;858;53.190;8.596;2022-11-23T11:48:12;10.20;;;4.80;;
1721;SDS011;858;53.190;8.596;2022-11-23T11:50:40;7.43;;;4.50;;
1721;SDS011;858;53.190;8.596;2022-11-23T11:53:11;10.17;;;4.87;;
1721;SDS011;858;53.190;8.596;2022-11-23T11:55:45;12.20;;;5.00;;
1721;SDS011;858;53.190;8.596;2022-11-23T11:58:14;17.70;;;5.40;;
1721;SDS011;858;53.190;8.596;2022-11-23T12:00:42;9.00;;;5.37;;
1721;SDS011;858;53.190;8.596;2022-11-23T12:03:11;10.30;;;4.93;;
1721;SDS011;858;53.190;8.596;2022-11-23T12:05:42;5.30;;;4.80;;
1721;SDS011;858;53.190;8.596;2022-11-23T12:08:11;9.37;;;5.47;;
1721;SDS011;858;53.190;8.596;2022-11-23T12:10:40;11.77;;;6.00;;
1721;SDS011;858;53.190;8.596;2022-11-23T12:13:11;5.30;;;4.20;;
1721;SDS011;858;53.190;8.596;2022-11-23T12:15:39;6.07;;;4.27;;
1721;SDS011;858;53.190;8.596;2022-11-23T12:18:16;6.20;;;5.53;;
1721;SDS011;858;53.190;8.596;2022-11-23T12:20:46;10.17;;;5.00;;
1721;SDS011;858;53.190;8.596;2022-11-23T12:23:18;5.30;;;4.37;;
1721;SDS011;858;53.190;8.596;2022-11-23T12:25:49;5.87;;;4.50;;
1721;SDS011;858;53.190;8.596;2022-11-23T12:28:21;11.73;;;5.37;;
1721;SDS011;858;53.190;8.596;2022-11-23T12:30:53;7.63;;;4.90;;
1721;SDS011;858;53.190;8.596;2022-11-23T12:36:21;11.57;;;5.20;;
1721;SDS011;858;53.190;8.596;2022-11-23T12:38:52;7.73;;;5.63;;
1721;SDS011;858;53.190;8.596;2022-11-23T12:41:21;6.07;;;4.43;;
1721;SDS011;858;53.190;8.596;2022-11-23T12:43:52;11.63;;;4.77;;
1721;SDS011;858;53.190;8.596;2022-11-23T12:46:21;9.13;;;5.20;;
1721;SDS011;858;53.190;8.596;2022-11-23T12:48:55;6.40;;;3.93;;
1721;SDS011;858;53.190;8.596;2022-11-23T12:51:25;17.40;;;5.20;;
1721;SDS011;858;53.190;8.596;2022-11-23T12:54:02;6.60;;;4.40;;
1721;SDS011;858;53.190;8.596;2022-11-23T12:56:38;10.07;;;4.27;;
1721;SDS011;858;53.190;8.596;2022-11-23T12:59:11;10.10;;;3.70;;
1721;SDS011;858;53.190;8.596;2022-11-23T13:01:38;8.43;;;4.37;;
1721;SDS011;858;53.190;8.596;2022-11-23T13:04:28;9.70;;;3.13;;
1721;SDS011;858;53.190;8.596;2022-11-23T13:07:05;10.03;;;4.30;;
1721;SDS011;858;53.190;8.596;2022-11-23T13:09:38;8.20;;;3.70;;
1721;SDS011;858;53.190;8.596;2022-11-23T13:12:11;9.90;;;4.50;;
1721;SDS011;858;53.190;8.596;2022-11-23T13:14:42;9.13;;;4.10;;
1721;SDS011;858;53.190;8.596;2022-11-23T13:17:14;7.27;;;4.23;;
1721;SDS011;858;53.190;8.596;2022-11-23T13:22:29;17.50;;;3.60;;
1721;SDS011;858;53.190;8.596;2022-11-23T13:25:00;5.90;;;3.20;;
1721;SDS011;858;53.190;8.596;2022-11-23T13:27:28;5.37;;;2.37;;
1721;SDS011;858;53.190;8.596;2022-11-23T13:29:55;6.77;;;1.97;;
1721;SDS011;858;53.190;8.596;2022-11-23T13:32:43;3.90;;;2.40;;
1721;SDS011;858;53.190;8.596;2022-11-23T13:40:44;3.87;;;2.67;;
1721;SDS011;858;53.190;8.596;2022-11-23T13:43:12;8.50;;;2.57;;
1721;SDS011;858;53.190;8.596;2022-11-23T13:45:39;4.80;;;2.60;;
1721;SDS011;858;53.190;8.596;2022-11-23T13:48:16;7.17;;;2.20;;
1721;SDS011;858;53.190;8.596;2022-11-23T13:50:57;8.20;;;2.70;;
1721;SDS011;858;53.190;8.596;2022-11-23T13:53:27;7.10;;;2.67;;
1721;SDS011;858;53.190;8.596;2022-11-23T13:55:57;3.83;;;2.37;;
1721;SDS011;858;53.190;8.596;2022-11-23T13:58:38;4.23;;;1.90;;
1721;SDS011;858;53.190;8.596;2022-11-23T14:01:05;7.40;;;1.60;;
1721;SDS011;858;53.190;8.596;2022-11-23T14:03:44;5.50;;;2.30;;
1721;SDS011;858;53.190;8.596;2022-11-23T14:06:15;5.87;;;2.33;;
1721;SDS011;858;53.190;8.596;2022-11-23T14:08:44;11.40;;;2.83;;
1721;SDS011;858;53.190;8.596;2022-11-23T14:11:17;9.83;;;3.20;;
1721;SDS011;858;53.190;8.596;2022-11-23T14:13:45;3.20;;;2.17;;
1721;SDS011;858;53.190;8.596;2022-11-23T14:16:15;7.80;;;2.93;;
1721;SDS011;858;53.190;8.596;2022-11-23T14:18:51;3.83;;;2.27;;
1721;SDS011;858;53.190;8.596;2022-11-23T14:21:22;4.67;;;2.00;;
1721;SDS011;858;53.190;8.596;2022-11-23T14:26:41;4.10;;;2.43;;
1721;SDS011;858;53.190;8.596;2022-11-23T14:29:16;7.03;;;2.23;;
1721;SDS011;858;53.190;8.596;2022-11-23T14:31:50;2.63;;;1.83;;
1721;SDS011;858;53.190;8.596;2022-11-23T14:34:22;7.33;;;2.03;;
1721;SDS011;858;53.190;8.596;2022-11-23T14:36:52;5.17;;;3.07;;
1721;SDS011;858;53.190;8.596;2022-11-23T14:39:32;7.73;;;2.50;;
1721;SDS011;858;53.190;8.596;2022-11-23T14:42:07;6.33;;;2.80;;
1721;SDS011;858;53.190;8.596;2022-11-23T14:44:35;5.03;;;2.40;;
1721;SDS011;858;53.190;8.596;2022-11-23T14:47:04;8.83;;;2.60;;
1721;SDS011;858;53.190;8.596;2022-11-23T14:49:31;5.20;;;2.20;;
1721;SDS011;858;53.190;8.596;2022-11-23T14:51:57;3.03;;;1.97;;
1721;SDS011;858;53.190;8.596;2022-11-23T14:54:24;6.93;;;2.67;;
1721;SDS011;858;53.190;8.596;2022-11-23T14:56:53;3.40;;;2.20;;
1721;SDS011;858;53.190;8.596;2022-11-23T14:59:24;7.13;;;2.80;;
1721;SDS011;858;53.190;8.596;2022-11-23T15:01:52;4.80;;;2.37;;
1721;SDS011;858;53.190;8.596;2022-11-23T15:04:22;5.20;;;3.13;;
1721;SDS011;858;53.190;8.596;2022-11-23T15:06:49;3.10;;;2.50;;
1721;SDS011;858;53.190;8.596;2022-11-23T15:09:19;5.20;;;2.33;;
1721;SDS011;858;53.190;8.596;2022-11-23T15:11:48;4.83;;;2.57;;
1721;SDS011;858;53.190;8.596;2022-11-23T15:14:18;5.83;;;2.37;;
1721;SDS011;858;53.190;8.596;2022-11-23T15:16:46;6.00;;;2.67;;
1721;SDS011;858;53.190;8.596;2022-11-23T15:19:16;6.37;;;3.00;;
1721;SDS011;858;53.190;8.596;2022-11-23T15:21:44;11.13;;;2.73;;
1721;SDS011;858;53.190;8.596;2022-11-23T15:24:18;5.17;;;2.57;;
1721;SDS011;858;53.190;8.596;2022-11-23T15:26:46;3.40;;;2.07;;
1721;SDS011;858;53.190;8.596;2022-11-23T15:29:27;6.90;;;2.77;;
1721;SDS011;858;53.190;8.596;2022-11-23T15:31:55;6.17;;;2.60;;
1721;SDS011;858;53.190;8.596;2022-11-23T15:34:22;6.20;;;2.23;;
1721;SDS011;858;53.190;8.596;2022-11-23T15:36:49;4.23;;;2.27;;
1721;SDS011;858;53.190;8.596;2022-11-23T15:39:16;7.80;;;2.93;;
1721;SDS011;858;53.190;8.596;2022-11-23T15:41:43;9.13;;;3.77;;
1721;SDS011;858;53.190;8.596;2022-11-23T15:44:14;4.07;;;2.97;;
1721;SDS011;858;53.190;8.596;2022-11-23T15:46:42;3.23;;;2.63;;
1721;SDS011;858;53.190;8.596;2022-11-23T15:49:12;5.33;;;3.57;;
1721;SDS011;858;53.190;8.596;2022-11-23T15:51:40;6.40;;;3.63;;
1721;SDS011;858;53.190;8.596;2022-11-23T15:54:10;9.73;;;3.03;;